Latest Weather Observations for Roseworthy

IDS60901

Issued at 2:05 pm CDT Tuesday 21 October 2014 (issued every 10 minutes, with the page automatically refreshed every 10 minutes)

About weather observations | Map of Adelaide area stations | Latest observations for Adelaide area | Other Formats
Station Details ID: 023122 Name: ROSEWORTHY AWS Lat: -34.51 Lon: 138.68 Height: 65.0 m
Data from the previous 72 hours. | See also: Recent months at Roseworthy
Date/Time
CDT
Tmp

°C
App
Tmp
°C
Dew
Point
°C
Rel
Hum
%
Delta-T

°C
Wind Press
QNH
hPa
Press
MSL
hPa
Rain
since
9 am
mm
Dir
 
Spd
km/h
Gust
km/h
Spd
kts
Gust
kts
21/02:00pm 37.2 32.6 -0.9 9 18.8 NW 13 20 7 11 1017.0 - 0.0
21/01:30pm 37.5 31.2 -0.7 9 19.0 NNW 22 35 12 19 1017.2 - 0.0
21/01:00pm 38.0 31.8 -0.3 9 19.2 NNE 22 33 12 18 1017.6 - 0.0
21/12:30pm 37.6 32.1 0.8 10 18.7 NNE 19 26 10 14 1018.2 - 0.0
21/12:00pm 36.5 29.6 0.0 10 18.2 NNE 26 37 14 20 1018.6 1018.7 0.0
21/11:30am 35.8 27.7 -0.5 10 17.9 NNE 32 46 17 25 1018.8 - 0.0
21/11:00am 35.2 28.9 1.5 12 17.1 NNE 24 37 13 20 1019.0 - 0.0
21/10:30am 32.2 24.7 1.3 14 15.3 NE 30 43 16 23 1019.4 - 0.0
21/10:00am 31.5 23.5 1.8 15 14.8 NE 33 44 18 24 1019.5 - 0.0
21/09:30am 28.9 19.7 1.4 17 13.4 NE 39 50 21 27 1019.4 - 0.0
21/09:00am 27.8 19.5 2.1 19 12.5 NE 35 50 19 27 1019.3 1019.4 0.0
21/08:30am 26.8 19.0 2.0 20 12.0 NE 32 43 17 23 1019.3 - 0.0
21/08:00am 24.7 17.7 2.2 23 10.8 NE 28 41 15 22 1019.4 - 0.0
21/07:30am 22.9 15.5 1.8 25 9.9 NE 30 39 16 21 1019.1 - 0.0
21/07:00am 21.3 13.5 1.6 27 9.1 ENE 32 44 17 24 1018.9 - 0.0
21/06:30am 21.2 13.4 2.0 28 8.9 ENE 32 41 17 22 1018.7 - 0.0
21/06:00am 21.2 13.8 2.0 28 8.9 ENE 30 41 16 22 1018.4 1018.5 0.0
21/05:30am 21.5 14.1 1.7 27 9.2 ENE 30 41 16 22 1018.3 - 0.0
21/05:00am 21.6 14.6 1.8 27 9.2 NE 28 35 15 19 1018.3 - 0.0
21/04:30am 22.2 14.8 1.8 26 9.5 ENE 30 44 16 24 1018.1 - 0.0
21/04:00am 22.5 14.5 1.5 25 9.8 ENE 33 44 18 24 1018.2 - 0.0
21/03:30am 22.9 15.1 1.8 25 9.9 ENE 32 41 17 22 1018.4 - 0.0
21/03:00am 22.8 15.0 1.8 25 9.8 ENE 32 41 17 22 1018.6 1018.7 0.0
21/02:30am 22.5 15.5 2.1 26 9.6 ENE 28 37 15 20 1018.9 - 0.0
21/02:00am 23.0 16.4 1.9 25 9.9 ENE 26 35 14 19 1019.1 - 0.0
21/01:30am 23.3 16.3 2.2 25 10.0 ENE 28 39 15 21 1019.3 - 0.0
21/01:00am 23.0 16.9 2.5 26 9.8 ENE 24 32 13 17 1019.7 - 0.0
21/12:30am 22.9 17.2 2.9 27 9.6 ENE 22 28 12 15 1020.1 - 0.0
21/12:00am 22.0 16.9 3.2 29 9.0 E 19 26 10 14 1020.2 1020.3 0.0
 
Date/Time
CDT
Tmp

°C
App
Tmp
°C
Dew
Point
°C
Rel
Hum
%
Delta-T

°C
Wind Press
QNH
hPa
Press
MSL
hPa
Rain
since
9 am
mm
Dir
 
Spd
km/h
Gust
km/h
Spd
kts
Gust
kts
20/11:30pm 22.8 17.2 3.4 28 9.4 E 22 30 12 16 1020.5 - 0.0
20/11:00pm 23.7 17.7 3.1 26 10.0 E 24 35 13 19 1020.6 - 0.0
20/10:30pm 23.0 17.5 4.0 29 9.3 E 22 28 12 15 1020.8 - 0.0
20/10:00pm 23.0 18.6 4.5 30 9.2 ESE 17 24 9 13 1021.0 - 0.0
20/09:30pm 22.9 18.4 4.4 30 9.1 ESE 17 22 9 12 1021.0 - 0.0
20/09:00pm 23.0 18.6 4.5 30 9.1 ESE 17 22 9 12 1020.8 1020.9 0.0
20/08:30pm 23.5 18.7 4.9 30 9.3 E 19 24 10 13 1020.4 - 0.0
20/08:00pm 23.3 19.2 4.3 29 9.4 E 15 20 8 11 1020.0 - 0.0
20/07:30pm 25.3 21.5 3.9 25 10.6 ESE 13 15 7 8 1019.9 - 0.0
20/07:00pm 28.6 23.4 2.7 19 12.9 E 19 28 10 15 1019.5 - 0.0
20/06:30pm 29.8 24.5 2.9 18 13.5 E 20 28 11 15 1019.3 - 0.0
20/06:00pm 30.8 25.1 2.9 17 14.1 E 22 32 12 17 1019.0 1019.1 0.0
20/05:30pm 32.2 26.2 1.3 14 15.3 ENE 22 28 12 15 1019.2 - 0.0
20/05:00pm 32.9 27.0 1.9 14 15.6 E 22 32 12 17 1019.2 - 0.0
20/04:30pm 33.6 27.3 1.4 13 16.2 E 24 35 13 19 1019.2 - 0.0
20/04:00pm 33.8 27.5 1.6 13 16.2 E 24 32 13 17 1019.4 - 0.0
20/03:30pm 33.6 27.1 2.4 14 15.9 E 26 35 14 19 1019.7 - 0.0
20/03:00pm 33.5 27.5 3.3 15 15.6 ENE 24 35 13 19 1020.0 1020.1 0.0
20/02:30pm 33.0 26.5 2.9 15 15.4 E 26 35 14 19 1020.6 - 0.0
20/02:00pm 32.2 24.8 4.1 17 14.6 ENE 32 39 17 21 1021.1 - 0.0
20/01:30pm 31.3 24.5 4.9 19 13.8 ENE 30 41 16 22 1021.4 - 0.0
20/01:00pm 30.2 23.1 5.5 21 13.0 ENE 32 43 17 23 1021.6 - 0.0
20/12:30pm 29.7 23.8 5.7 22 12.6 ENE 26 39 14 21 1022.1 - 0.0
20/12:00pm 27.2 22.9 7.1 28 10.7 E 19 32 10 17 1022.7 1022.8 0.0
20/11:30am 25.8 21.4 7.4 31 9.8 E 20 28 11 15 1023.2 - 0.0
20/11:00am 25.0 20.3 7.6 33 9.2 E 22 32 12 17 1023.6 - 0.0
20/10:30am 23.5 18.6 8.4 38 8.0 E 24 37 13 20 1023.7 - 0.0
20/10:00am 22.1 16.7 8.2 41 7.3 E 26 39 14 21 1023.9 - 0.0
20/09:30am 20.3 14.7 8.6 47 6.1 E 28 35 15 19 1024.1 - 0.0
20/09:00am 18.9 14.2 9.1 53 5.1 E 24 33 13 18 1024.1 1024.1 0.0
20/08:30am 17.0 11.8 8.7 58 4.3 E 26 37 14 20 1023.9 - 0.0
20/08:00am 16.3 10.7 8.8 61 3.9 E 28 37 15 20 1023.6 - 0.0
20/07:30am 15.0 10.3 6.0 55 4.3 E 20 28 11 15 1023.4 - 0.0
20/07:00am 13.2 9.5 6.5 64 3.2 ESE 15 20 8 11 1023.4 - 0.0
20/06:30am 12.3 8.7 6.6 68 2.7 E 15 20 8 11 1023.1 - 0.0
20/06:00am 12.8 8.6 5.9 63 3.2 E 17 20 9 11 1022.7 1022.8 0.0
20/05:30am 13.0 8.6 6.6 65 3.1 E 19 26 10 14 1022.6 - 0.0
20/05:00am 13.1 9.2 6.9 66 3.0 E 17 20 9 11 1022.5 - 0.0
20/04:30am 13.6 9.4 8.4 71 2.6 E 20 28 11 15 1022.3 - 0.0
20/04:00am 12.6 9.5 7.1 69 2.7 ESE 13 17 7 9 1022.3 - 0.0
20/03:30am 12.8 9.8 7.5 70 2.6 ESE 13 17 7 9 1022.3 - 0.0
20/03:00am 13.1 9.9 6.9 66 3.0 ESE 13 17 7 9 1022.4 1022.5 0.0
20/02:30am 13.3 10.4 6.6 64 3.2 ESE 11 15 6 8 1022.4 - 0.0
20/02:00am 14.0 10.7 8.0 67 3.0 ESE 15 19 8 10 1022.5 - 0.0
20/01:30am 12.6 9.5 7.1 69 2.7 E 13 17 7 9 1022.5 - 0.0
20/01:00am 13.4 10.3 7.4 67 2.9 E 13 17 7 9 1022.4 - 0.0
20/12:30am 15.5 12.3 8.3 62 3.6 ESE 15 20 8 11 1022.5 - 0.0
20/12:00am 16.2 12.9 8.2 59 4.0 ESE 15 20 8 11 1022.5 1022.6 0.0
 
Date/Time
CDT
Tmp

°C
App
Tmp
°C
Dew
Point
°C
Rel
Hum
%
Delta-T

°C
Wind Press
QNH
hPa
Press
MSL
hPa
Rain
since
9 am
mm
Dir
 
Spd
km/h
Gust
km/h
Spd
kts
Gust
kts
19/11:30pm 17.1 12.5 8.0 55 4.6 ESE 22 28 12 15 1022.4 - 0.0
19/11:00pm 17.8 13.0 7.5 51 5.2 ESE 22 35 12 19 1022.3 - 0.0
19/10:30pm 17.2 13.3 7.3 52 5.0 ESE 17 22 9 12 1022.2 - 0.0
19/10:00pm 17.2 12.8 7.3 52 5.0 ESE 20 30 11 16 1022.0 - 0.0
19/09:30pm 16.8 12.7 8.8 59 4.1 ESE 20 30 11 16 1022.1 - 0.0
19/09:00pm 16.6 12.8 9.8 64 3.6 ESE 20 32 11 17 1021.8 1021.9 0.0
19/08:30pm 17.8 14.2 9.7 59 4.3 ESE 19 26 10 14 1021.2 - 0.0
19/08:00pm 19.4 16.8 10.7 57 4.7 ESE 15 19 8 10 1020.8 - 0.0
19/07:30pm 22.7 19.3 10.5 46 6.7 SE 19 28 10 15 1020.3 - 0.0
19/07:00pm 24.9 21.9 6.1 30 9.7 SW 11 13 6 7 1019.6 - 0.0
19/06:30pm 27.6 24.4 6.9 27 11.0 SW 13 20 7 11 1019.3 - 0.0
19/06:00pm 29.5 24.2 -0.8 14 14.2 SSW 17 24 9 13 1019.1 1019.2 0.0
19/05:30pm 30.5 24.6 -2.1 12 15.1 SSW 19 28 10 15 1019.0 - 0.0
19/05:00pm 31.1 25.1 -1.6 12 15.3 SSW 20 30 11 16 1018.8 - 0.0
19/04:30pm 31.5 25.0 -2.5 11 15.8 SSW 22 32 12 17 1018.7 - 0.0
19/04:00pm 32.1 24.9 -2.0 11 16.0 SSW 26 35 14 19 1018.8 - 0.0
19/03:30pm 32.5 25.3 -1.7 11 16.2 SSW 26 37 14 20 1018.7 - 0.0
19/03:00pm 32.8 24.5 -1.5 11 16.3 SSW 32 41 17 22 1018.6 1018.7 0.0
19/02:30pm 34.7 26.3 -6.1 7 18.3 W 30 41 16 22 1018.8 - 0.0
19/02:00pm 34.7 27.2 -4.4 8 18.0 NW 26 35 14 19 1019.0 - 0.0
19/01:30pm 35.6 28.2 -3.7 8 18.4 WNW 26 37 14 20 1019.2 - 0.0
19/01:00pm 34.7 27.2 -4.4 8 18.0 NW 26 37 14 20 1019.3 - 0.0
19/12:30pm 34.1 26.6 -4.8 8 17.7 NW 26 44 14 24 1019.5 - 0.0
19/12:00pm 33.8 26.6 -5.0 8 17.5 NW 24 35 13 19 1019.7 1019.8 0.0
19/11:30am 33.5 25.7 -3.7 9 17.2 NW 28 39 15 21 1020.1 - 0.0
19/11:00am 32.8 24.2 -4.2 9 16.8 NNW 32 43 17 23 1020.1 - 0.0
19/10:30am 31.8 23.3 -3.5 10 16.1 NW 32 41 17 22 1020.2 - 0.0
19/10:00am 29.5 21.3 -4.0 11 14.9 NNW 30 43 16 23 1020.2 - 0.0
19/09:30am 29.7 22.7 -3.9 11 15.0 NNW 24 35 13 19 1020.2 - 0.0
19/09:00am 27.0 21.2 -1.8 15 13.0 N 19 26 10 14 1020.2 1020.3 0.0
19/08:30am 23.8 19.4 0.2 21 10.8 N 13 17 7 9 1020.0 - 0.0
19/08:00am 20.1 15.3 0.0 26 8.9 N 15 19 8 10 1019.7 - 0.0
19/07:30am 19.4 14.5 -0.6 26 8.7 N 15 19 8 10 1019.3 - 0.0
19/07:00am 19.7 13.9 -1.4 24 9.1 N 19 22 10 12 1018.9 - 0.0
19/06:30am 19.8 14.0 -1.3 24 9.1 N 19 24 10 13 1018.3 - 0.0
19/06:00am 19.8 13.8 -1.3 24 9.1 NNE 20 26 11 14 1017.8 1017.9 0.0
19/05:30am 19.6 13.6 -1.5 24 9.0 N 20 26 11 14 1017.6 - 0.0
19/05:00am 19.4 13.5 -1.1 25 8.8 N 20 24 11 13 1017.7 - 0.0
19/04:30am 18.8 13.1 -1.1 26 8.5 N 19 24 10 13 1017.7 - 0.0
19/04:00am 18.7 13.0 -0.7 27 8.4 NNE 19 26 10 14 1017.6 - 0.0
19/03:30am 18.3 12.6 -0.5 28 8.1 NNE 19 24 10 13 1017.8 - 0.0
19/03:00am 16.9 12.0 -0.3 31 7.3 NE 15 20 8 11 1018.2 1018.3 0.0
19/02:30am 16.5 10.9 0.2 33 7.0 NNE 19 22 10 12 1018.4 - 0.0
19/02:00am 14.2 9.1 0.8 40 5.7 N 17 19 9 10 1018.7 - 0.0
19/01:30am 12.4 8.6 1.7 48 4.6 N 11 13 6 7 1018.8 - 0.0
19/01:00am 13.1 9.2 1.1 44 5.1 NNE 11 15 6 8 1019.2 - 0.0
19/12:30am 13.6 9.7 0.9 42 5.4 ENE 11 13 6 7 1019.1 - 0.0
19/12:00am 14.9 10.9 0.4 37 6.2 ENE 11 13 6 7 1019.1 1019.2 0.0
 
Date/Time
CDT
Tmp

°C
App
Tmp
°C
Dew
Point
°C
Rel
Hum
%
Delta-T

°C
Wind Press
QNH
hPa
Press
MSL
hPa
Rain
since
9 am
mm
Dir
 
Spd
km/h
Gust
km/h
Spd
kts
Gust
kts
18/11:30pm 17.4 13.7 -0.3 30 7.6 NNE 9 17 5 9 1019.4 - 0.0
18/11:00pm 18.5 12.9 0.2 29 8.0 NE 19 20 10 11 1019.2 - 0.0
18/10:30pm 18.5 12.9 0.2 29 8.0 NE 19 22 10 12 1019.2 - 0.0
18/10:00pm 16.9 11.8 1.0 34 7.0 NE 17 20 9 11 1019.2 - 0.0
18/09:30pm 14.8 9.9 1.7 41 5.7 NE 17 17 9 9 1019.2 - 0.0
18/09:00pm 15.3 11.6 2.5 42 5.7 NNE 11 13 6 7 1019.1 1019.2 0.0
18/08:30pm 15.8 12.8 2.2 40 6.1 NE 7 11 4 6 1019.0 - 0.0
18/08:00pm 16.9 14.4 1.8 36 6.8 NNW 4 9 2 5 1018.7 - 0.0
18/07:30pm 20.7 18.7 2.5 30 8.5 W 2 6 1 3 1018.4 - 0.0
18/07:23pm 22.1 19.7 2.2 27 9.4 W 4 7 2 4 1018.3 - 0.0
18/07:00pm 27.3 23.6 -2.5 14 13.4 W 7 9 4 5 1018.2 - 0.0
18/06:30pm 29.2 25.0 -4.3 11 14.8 WNW 9 13 5 7 1018.0 - 0.0
18/06:00pm 30.5 24.3 -4.5 10 15.5 WNW 19 26 10 14 1018.0 1018.1 0.0
18/05:30pm 33.0 27.7 -4.0 9 16.9 WNW 15 20 8 11 1017.9 - 0.0
18/05:00pm 32.8 25.7 -4.2 9 16.8 WNW 24 33 13 18 1018.0 - 0.0
18/04:30pm 33.0 26.9 -4.0 9 16.9 NW 19 37 10 20 1017.8 - 0.0
18/04:00pm 32.0 24.9 -4.8 9 16.5 WNW 24 35 13 19 1018.0 - 0.0
18/03:30pm 32.9 26.4 -5.7 8 17.1 NNW 20 30 11 16 1018.1 - 0.0
18/03:00pm 34.0 26.1 -4.9 8 17.6 NNW 28 39 15 21 1018.5 1018.6 0.0
18/02:30pm 33.5 26.3 -5.2 8 17.4 NW 24 32 13 17 1018.5 - 0.0

Latest Capital City Observations: Canberra | Sydney | Melbourne | Brisbane | Adelaide | Perth | Hobart | Darwin

Other Formats:

Comma delimited format used in spreadsheet applications
http://www.bom.gov.au/fwo/IDS60901/IDS60901.95671.axf

JavaScript Object Notation format (JSON) in row-major order
http://www.bom.gov.au/fwo/IDS60901/IDS60901.95671.json